createdAt,value
2022-09-06T00:00:30.297Z,61.38
2022-09-06T00:03:31.909Z,61.19
2022-09-06T00:06:33.990Z,61.20
2022-09-06T00:09:35.660Z,61.00
2022-09-06T00:12:38.060Z,60.90
2022-09-06T00:15:39.763Z,61.07
2022-09-06T00:18:42.901Z,61.05
2022-09-06T00:21:44.491Z,61.21
2022-09-06T00:24:46.181Z,61.17
2022-09-06T00:27:47.749Z,61.13
2022-09-06T00:30:49.335Z,61.21
2022-09-06T00:33:51.276Z,61.35
2022-09-06T00:36:53.409Z,61.38
2022-09-06T00:39:54.985Z,61.41
2022-09-06T00:42:57.628Z,61.43
2022-09-06T00:46:00.735Z,61.26
2022-09-06T00:49:06.772Z,60.99
2022-09-06T00:52:13.073Z,61.06
2022-09-06T00:55:15.365Z,61.15
2022-09-06T00:58:16.931Z,61.24
2022-09-06T01:01:18.629Z,61.27
2022-09-06T01:04:20.513Z,61.37
2022-09-06T01:07:50.844Z,61.37
2022-09-06T01:10:59.103Z,61.36
2022-09-06T01:14:50.246Z,61.35
2022-09-06T01:18:09.790Z,61.48
2022-09-06T01:21:33.180Z,61.53
2022-09-06T01:24:49.808Z,61.33
2022-09-06T01:27:57.374Z,61.19
2022-09-06T01:31:24.960Z,61.04
2022-09-06T01:34:41.899Z,60.93
2022-09-06T01:37:44.099Z,60.93
2022-09-06T01:40:45.722Z,60.88
2022-09-06T01:43:51.598Z,60.95
2022-09-06T01:47:13.875Z,61.03
2022-09-06T01:50:47.131Z,61.08
2022-09-06T01:54:23.429Z,60.98
2022-09-06T01:57:40.915Z,60.81
2022-09-06T02:01:07.605Z,60.69
2022-09-06T02:04:31.298Z,60.86
2022-09-06T02:07:35.331Z,61.10
2022-09-06T02:10:42.409Z,61.13
2022-09-06T02:13:51.860Z,61.06
2022-09-06T02:16:55.867Z,60.97
2022-09-06T02:20:09.342Z,60.94
2022-09-06T02:23:11.993Z,60.89
2022-09-06T02:26:25.005Z,60.79
2022-09-06T02:29:26.811Z,60.63
2022-09-06T02:32:29.908Z,60.80
2022-09-06T02:35:31.983Z,60.90
2022-09-06T02:38:36.035Z,60.98
2022-09-06T02:41:40.329Z,60.90
2022-09-06T02:44:41.853Z,60.74
2022-09-06T02:47:43.468Z,60.74
2022-09-06T02:50:45.058Z,60.66
2022-09-06T02:53:46.945Z,60.63
2022-09-06T02:56:52.128Z,60.69
2022-09-06T02:59:54.045Z,61.00
2022-09-06T03:02:56.028Z,60.87
2022-09-06T03:05:57.656Z,60.88
2022-09-06T03:08:59.620Z,61.16
2022-09-06T03:12:01.328Z,61.08
2022-09-06T03:15:04.197Z,61.09
2022-09-06T03:18:05.787Z,61.08
2022-09-06T03:21:07.603Z,61.27
2022-09-06T03:24:09.152Z,61.09
2022-09-06T03:27:10.645Z,61.24
2022-09-06T03:30:12.686Z,60.97
2022-09-06T03:33:14.920Z,60.99
2022-09-06T03:36:16.819Z,60.95
2022-09-06T03:39:18.373Z,61.04
2022-09-06T03:42:20.190Z,61.01
2022-09-06T03:45:22.157Z,61.13
2022-09-06T03:48:26.020Z,61.33
2022-09-06T03:51:27.619Z,61.13
2022-09-06T03:54:29.144Z,61.02
2022-09-06T03:57:30.766Z,60.77
2022-09-06T04:00:33.026Z,60.94
2022-09-06T04:03:35.190Z,60.93
2022-09-06T04:06:36.789Z,60.98
2022-09-06T04:09:38.430Z,61.01
2022-09-06T04:12:39.969Z,61.26
2022-09-06T04:15:46.926Z,61.50
2022-09-06T04:18:48.623Z,61.45
2022-09-06T04:21:50.202Z,61.33
2022-09-06T04:24:51.946Z,61.29
2022-09-06T04:27:53.538Z,61.13
2022-09-06T04:31:04.328Z,61.29
2022-09-06T04:34:06.662Z,61.65
2022-09-06T04:37:08.198Z,61.39
2022-09-06T04:40:10.252Z,61.39
2022-09-06T04:43:11.968Z,61.40
2022-09-06T04:46:16.408Z,61.48
2022-09-06T04:49:18.064Z,61.62
2022-09-06T04:52:19.604Z,61.94
2022-09-06T04:55:21.162Z,61.91
2022-09-06T04:58:22.801Z,61.61
2022-09-06T05:01:25.671Z,61.26
2022-09-06T05:04:27.341Z,61.22
2022-09-06T05:07:28.881Z,61.16
2022-09-06T05:10:30.432Z,61.16
2022-09-06T05:13:32.597Z,61.72
2022-09-06T05:16:34.145Z,62.02
2022-09-06T05:19:35.699Z,62.45
2022-09-06T05:22:37.963Z,62.70
2022-09-06T05:25:39.424Z,62.80
2022-09-06T05:28:41.003Z,62.63
2022-09-06T05:31:42.793Z,62.26
2022-09-06T05:34:44.624Z,62.65
2022-09-06T05:37:46.178Z,62.05
2022-09-06T05:40:47.769Z,61.79
2022-09-06T05:43:49.511Z,61.94
2022-09-06T05:46:51.854Z,61.52
2022-09-06T05:49:53.802Z,62.26
2022-09-06T05:52:55.509Z,62.56
2022-09-06T05:55:57.176Z,61.85
2022-09-06T05:58:58.844Z,61.39
2022-09-06T06:02:03.222Z,61.44
2022-09-06T06:05:07.587Z,61.03
2022-09-06T06:08:09.117Z,60.77
2022-09-06T06:11:11.489Z,60.94
2022-09-06T06:14:13.198Z,60.51
2022-09-06T06:17:15.696Z,60.18
2022-09-06T06:20:17.500Z,59.82
2022-09-06T06:23:19.270Z,59.93
2022-09-06T06:26:21.802Z,60.70
2022-09-06T06:29:24.751Z,59.91
2022-09-06T06:32:28.947Z,59.48
2022-09-06T06:35:35.179Z,60.07
2022-09-06T06:38:42.462Z,59.98
2022-09-06T06:41:45.765Z,59.29
2022-09-06T06:45:01.737Z,59.03
2022-09-06T06:48:04.479Z,58.94
2022-09-06T06:51:12.370Z,58.65
2022-09-06T06:54:14.597Z,58.72
2022-09-06T06:57:18.633Z,59.07
2022-09-06T07:00:46.132Z,59.04
2022-09-06T07:03:58.887Z,58.99
2022-09-06T07:13:36.606Z,59.28
2022-09-06T07:16:38.627Z,59.95
2022-09-06T07:26:30.058Z,60.04
2022-09-06T07:29:31.918Z,59.75
2022-09-06T07:32:34.442Z,59.47
2022-09-06T07:35:36.404Z,60.11
2022-09-06T07:38:38.401Z,60.31
2022-09-06T07:41:39.978Z,60.99
2022-09-06T07:44:41.565Z,60.75
2022-09-06T07:47:58.495Z,60.09
2022-09-06T07:51:20.768Z,59.65
2022-09-06T07:54:31.041Z,60.36
2022-09-06T07:57:33.040Z,60.16
2022-09-06T08:00:34.790Z,60.53
2022-09-06T08:03:36.367Z,60.97
2022-09-06T08:10:02.589Z,60.92
2022-09-06T08:13:04.131Z,60.16
2022-09-06T08:16:08.422Z,59.45
2022-09-06T08:19:11.762Z,59.46
2022-09-06T08:22:13.284Z,59.22
2022-09-06T08:25:14.947Z,58.20
2022-09-06T08:28:16.556Z,57.60
2022-09-06T08:31:19.160Z,56.98
2022-09-06T08:34:21.129Z,57.73
2022-09-06T08:37:25.065Z,58.39
2022-09-06T08:40:26.855Z,58.54
2022-09-06T08:43:28.830Z,57.78
2022-09-06T08:46:38.599Z,56.78
2022-09-06T08:49:54.028Z,57.29
2022-09-06T08:53:18.465Z,56.45
2022-09-06T08:56:33.604Z,55.87
2022-09-06T08:59:40.263Z,55.66
2022-09-06T09:02:45.551Z,55.12
2022-09-06T09:05:52.015Z,54.70
2022-09-06T09:09:03.324Z,54.60
2022-09-06T09:12:05.833Z,53.88
2022-09-06T09:15:12.093Z,53.66
2022-09-06T09:18:20.051Z,52.88
2022-09-06T09:21:28.156Z,51.58
2022-09-06T09:24:32.162Z,51.22
2022-09-06T09:27:37.950Z,50.61
2022-09-06T09:30:52.165Z,50.31
2022-09-06T09:33:53.687Z,50.45
2022-09-06T09:40:48.511Z,49.56
2022-09-06T09:44:05.019Z,48.67
2022-09-06T09:47:24.047Z,48.64
2022-09-06T09:50:27.842Z,48.77
2022-09-06T09:53:29.465Z,47.90
2022-09-06T09:56:34.132Z,47.86
2022-09-06T09:59:35.680Z,46.82
2022-09-06T10:02:42.298Z,46.29
2022-09-06T10:06:02.241Z,46.32
2022-09-06T10:09:22.163Z,46.49
2022-09-06T10:12:35.377Z,46.08
2022-09-06T10:15:39.516Z,45.93
2022-09-06T10:18:43.544Z,45.79
2022-09-06T10:21:45.186Z,45.52
2022-09-06T10:24:55.636Z,45.34
2022-09-06T10:28:29.595Z,45.79
2022-09-06T10:31:39.625Z,44.94
2022-09-06T10:35:05.292Z,44.30
2022-09-06T10:38:37.990Z,44.15
2022-09-06T10:42:10.944Z,44.06
2022-09-06T10:45:44.614Z,44.07
2022-09-06T10:48:47.321Z,44.27
2022-09-06T10:51:59.842Z,44.49
2022-09-06T10:55:04.995Z,43.73
2022-09-06T10:58:19.047Z,43.01
2022-09-06T11:01:29.980Z,43.08
2022-09-06T11:11:54.271Z,42.75
2022-09-06T11:14:56.100Z,42.30
2022-09-06T11:18:12.557Z,42.31
2022-09-06T11:21:32.444Z,42.60
2022-09-06T11:25:14.814Z,41.61
2022-09-06T11:28:23.923Z,41.98
2022-09-06T11:34:54.255Z,41.11
2022-09-06T11:38:02.142Z,40.90
2022-09-06T11:41:12.445Z,41.05
2022-09-06T11:44:48.965Z,41.62
2022-09-06T11:47:52.273Z,40.73
2022-09-06T11:50:53.997Z,40.92
2022-09-06T11:54:02.887Z,40.84
2022-09-06T11:57:07.307Z,40.88
2022-09-06T12:00:19.631Z,40.90
2022-09-06T12:04:06.019Z,41.19
2022-09-06T12:07:11.787Z,41.34
2022-09-06T12:10:49.148Z,41.63
2022-09-06T12:14:16.593Z,41.15
2022-09-06T12:17:20.227Z,40.85
2022-09-06T12:20:52.267Z,41.53
2022-09-06T12:23:53.840Z,41.58
2022-09-06T12:27:15.717Z,42.07
2022-09-06T12:30:41.563Z,41.18
2022-09-06T12:33:44.529Z,42.46
2022-09-06T12:36:50.276Z,42.70
2022-09-06T12:39:58.971Z,42.43
2022-09-06T12:43:03.754Z,43.59
2022-09-06T12:46:07.441Z,43.45
2022-09-06T12:49:11.580Z,44.29
2022-09-06T12:52:18.386Z,44.46
2022-09-06T12:55:36.591Z,43.66
2022-09-06T12:58:38.958Z,44.46
2022-09-06T13:01:48.796Z,45.72
2022-09-06T13:04:54.526Z,46.41
2022-09-06T13:08:00.332Z,45.59
2022-09-06T13:11:03.849Z,46.05
2022-09-06T13:14:14.806Z,45.79
2022-09-06T13:17:28.046Z,46.07
2022-09-06T13:20:30.893Z,45.36
2022-09-06T13:23:47.763Z,46.54
2022-09-06T13:26:50.401Z,46.37
2022-09-06T13:30:06.692Z,46.13
2022-09-06T13:33:23.621Z,45.72
2022-09-06T13:36:33.162Z,45.78
2022-09-06T13:39:39.198Z,45.74
2022-09-06T13:42:41.013Z,46.31
2022-09-06T13:45:43.718Z,46.49
2022-09-06T13:48:45.345Z,46.85
2022-09-06T13:51:46.875Z,45.80
2022-09-06T13:54:48.446Z,47.15
2022-09-06T13:57:50.421Z,47.33
2022-09-06T14:00:53.408Z,46.43
2022-09-06T14:03:55.023Z,46.17
2022-09-06T14:06:56.883Z,46.14
2022-09-06T14:10:00.450Z,45.76
2022-09-06T14:13:02.159Z,45.51
2022-09-06T14:16:04.760Z,45.31
2022-09-06T14:19:06.448Z,46.26
2022-09-06T14:22:08.021Z,45.54
2022-09-06T14:25:10.409Z,45.62
2022-09-06T14:28:12.265Z,45.08
2022-09-06T14:31:19.909Z,46.22
2022-09-06T14:34:21.604Z,45.68
2022-09-06T14:37:23.382Z,45.38
2022-09-06T14:40:26.196Z,45.32
2022-09-06T14:43:29.415Z,45.06
2022-09-06T14:46:33.372Z,44.95
2022-09-06T14:49:35.553Z,44.62
2022-09-06T14:52:37.005Z,44.55
2022-09-06T14:55:39.081Z,45.14
2022-09-06T14:58:40.992Z,45.02
2022-09-06T15:01:43.686Z,45.44
2022-09-06T15:04:45.662Z,45.13
2022-09-06T15:07:47.348Z,44.87
2022-09-06T15:10:53.612Z,45.34
2022-09-06T15:13:56.280Z,45.45
2022-09-06T15:16:59.377Z,45.11
2022-09-06T15:20:01.307Z,45.22
2022-09-06T15:23:24.429Z,45.55
2022-09-06T15:26:25.425Z,45.39
2022-09-06T15:29:26.957Z,45.99
2022-09-06T15:32:28.812Z,46.27
2022-09-06T15:35:30.734Z,47.25
2022-09-06T15:38:37.717Z,46.50
2022-09-06T15:41:40.601Z,47.41
2022-09-06T15:44:42.317Z,47.55
2022-09-06T15:47:43.923Z,47.81
2022-09-06T15:50:51.730Z,48.28
2022-09-06T15:53:53.604Z,47.46
2022-09-06T15:56:57.485Z,48.19
2022-09-06T15:59:59.649Z,48.97
2022-09-06T16:03:01.600Z,48.63
2022-09-06T16:09:27.745Z,49.18
2022-09-06T16:12:29.251Z,49.68
2022-09-06T16:15:30.771Z,49.39
2022-09-06T16:18:38.337Z,50.28
2022-09-06T16:21:43.555Z,50.60
2022-09-06T16:24:45.247Z,49.86
2022-09-06T16:27:46.862Z,50.45
2022-09-06T16:30:48.461Z,50.95
2022-09-06T16:33:50.837Z,51.52
2022-09-06T16:36:53.304Z,51.68
2022-09-06T16:39:55.421Z,51.76
2022-09-06T16:42:57.132Z,51.51
2022-09-06T16:46:00.866Z,52.09
2022-09-06T16:49:05.377Z,51.94
2022-09-06T16:52:09.131Z,52.10
2022-09-06T16:55:10.707Z,52.30
2022-09-06T16:58:12.865Z,52.69
2022-09-06T17:01:15.229Z,52.72
2022-09-06T17:04:18.088Z,52.98
2022-09-06T17:07:19.714Z,53.42
2022-09-06T17:10:21.333Z,53.40
2022-09-06T17:13:22.820Z,53.68
2022-09-06T17:16:43.469Z,53.93
2022-09-06T17:19:45.044Z,54.34
2022-09-06T17:22:50.302Z,54.11
2022-09-06T17:25:52.358Z,54.31
2022-09-06T17:28:54.269Z,54.55
2022-09-06T17:31:56.670Z,54.52
2022-09-06T17:34:58.938Z,54.66
2022-09-06T17:38:01.094Z,54.85
2022-09-06T17:41:03.388Z,54.99
2022-09-06T17:44:05.872Z,54.86
2022-09-06T17:47:12.805Z,54.63
2022-09-06T17:50:17.045Z,55.15
2022-09-06T17:53:18.810Z,54.61
2022-09-06T17:56:21.209Z,55.18
2022-09-06T17:59:22.881Z,55.51
2022-09-06T18:02:25.002Z,55.68
2022-09-06T18:05:26.995Z,55.69
2022-09-06T18:08:28.788Z,55.24
2022-09-06T18:11:32.959Z,55.39
2022-09-06T18:14:34.714Z,55.52
2022-09-06T18:17:36.498Z,55.59
2022-09-06T18:20:38.312Z,56.01
2022-09-06T18:23:40.067Z,56.36
2022-09-06T18:26:42.745Z,56.05
2022-09-06T18:29:44.330Z,56.04
2022-09-06T18:32:46.575Z,56.27
2022-09-06T18:35:49.644Z,56.09
2022-09-06T18:38:51.478Z,56.15
2022-09-06T18:41:59.530Z,55.93
2022-09-06T18:45:01.468Z,56.56
2022-09-06T18:48:06.972Z,56.71
2022-09-06T18:51:15.821Z,56.66
2022-09-06T18:54:19.244Z,56.58
2022-09-06T18:57:21.476Z,56.75
2022-09-06T19:00:25.299Z,57.06
2022-09-06T19:03:28.227Z,57.07
2022-09-06T19:06:31.758Z,56.99
2022-09-06T19:09:33.600Z,57.22
2022-09-06T19:12:35.660Z,57.59
2022-09-06T19:15:40.091Z,57.23
2022-09-06T19:18:41.666Z,57.43
2022-09-06T19:21:44.015Z,57.40
2022-09-06T19:24:45.533Z,57.51
2022-09-06T19:27:48.877Z,57.65
2022-09-06T19:30:51.423Z,57.77
2022-09-06T19:33:55.029Z,57.73
2022-09-06T19:36:56.707Z,57.67
2022-09-06T19:39:58.391Z,57.77
2022-09-06T19:43:00.027Z,57.75
2022-09-06T19:46:04.020Z,57.97
2022-09-06T19:49:07.570Z,58.05
2022-09-06T19:52:29.690Z,57.98
2022-09-06T19:55:33.024Z,58.05
2022-09-06T19:58:36.386Z,57.65
2022-09-06T20:01:40.991Z,57.59
2022-09-06T20:04:46.155Z,57.30
2022-09-06T20:07:48.964Z,56.91
2022-09-06T20:10:58.858Z,57.29
2022-09-06T20:14:00.949Z,56.86
2022-09-06T20:17:29.679Z,56.60
2022-09-06T20:20:25.526Z,56.44
2022-09-06T20:23:33.426Z,56.02
2022-09-06T20:26:35.662Z,56.02
2022-09-06T20:29:37.334Z,56.14
2022-09-06T20:32:39.708Z,56.32
2022-09-06T20:36:13.637Z,56.61
2022-09-06T20:39:15.200Z,56.72
2022-09-06T20:42:23.430Z,56.97
2022-09-06T20:45:27.003Z,56.55
2022-09-06T20:48:33.009Z,56.38
2022-09-06T20:51:42.539Z,56.37
2022-09-06T20:54:49.582Z,56.49
2022-09-06T20:57:51.137Z,56.45
2022-09-06T21:00:53.357Z,55.90
2022-09-06T21:03:58.748Z,55.90
2022-09-06T21:07:02.969Z,56.07
2022-09-06T21:10:10.527Z,56.03
2022-09-06T21:13:15.881Z,56.10
2022-09-06T21:16:24.283Z,56.73
2022-09-06T21:19:26.115Z,56.89
2022-09-06T21:22:27.776Z,56.52
2022-09-06T21:25:29.557Z,56.67
2022-09-06T21:28:36.051Z,56.78
2022-09-06T21:31:37.849Z,56.30
2022-09-06T21:34:39.998Z,55.96
2022-09-06T21:37:41.637Z,55.68
2022-09-06T21:40:43.371Z,55.56
2022-09-06T21:43:45.949Z,55.39
2022-09-06T21:46:47.671Z,55.16
2022-09-06T21:49:49.262Z,54.87
2022-09-06T21:52:51.743Z,54.65
2022-09-06T21:55:59.433Z,54.39
2022-09-06T21:59:01.548Z,54.21
2022-09-06T22:02:03.166Z,53.96
2022-09-06T22:05:06.005Z,54.25
2022-09-06T22:08:07.623Z,53.91
2022-09-06T22:11:24.659Z,53.80
2022-09-06T22:14:26.303Z,53.57
2022-09-06T22:17:27.907Z,53.42
2022-09-06T22:20:29.564Z,53.44
2022-09-06T22:23:31.887Z,53.77
2022-09-06T22:26:35.994Z,53.71
2022-09-06T22:29:37.608Z,53.50
2022-09-06T22:32:39.547Z,53.19
2022-09-06T22:35:41.165Z,53.01
2022-09-06T22:38:43.057Z,52.74
2022-09-06T22:41:45.021Z,52.59
2022-09-06T22:44:46.700Z,52.48
2022-09-06T22:47:50.394Z,52.27
2022-09-06T22:50:52.014Z,52.21
2022-09-06T22:53:53.780Z,52.12
2022-09-06T22:56:55.409Z,51.88
2022-09-06T22:59:57.488Z,52.36
2022-09-06T23:02:59.132Z,52.62
2022-09-06T23:06:01.999Z,52.16
2022-09-06T23:09:04.364Z,52.42
2022-09-06T23:12:06.108Z,51.72
2022-09-06T23:15:08.218Z,51.29
2022-09-06T23:18:09.842Z,51.28
2022-09-06T23:21:15.092Z,51.28
2022-09-06T23:24:16.735Z,51.50
2022-09-06T23:27:18.394Z,52.01
2022-09-06T23:30:20.048Z,52.14
2022-09-06T23:33:21.768Z,52.28
2022-09-06T23:36:24.280Z,51.89
2022-09-06T23:39:27.555Z,51.71
2022-09-06T23:42:29.222Z,51.17
2022-09-06T23:45:30.858Z,51.19
2022-09-06T23:48:33.455Z,50.87
2022-09-06T23:51:35.043Z,50.48
2022-09-06T23:54:36.683Z,50.08
2022-09-06T23:57:38.378Z,50.01
